ETH7 HDAM-HAAB
Flight info
| Callsign | ETH7 |
|---|---|
| Flight time | 0h 58m |
| Altitude | 32000 |
| Route | LAKBE1P LAKBE LAKBE2A |
| Aircraft | B738/M-SDE2E3FGHIRWXY/LB1 |
Departure
| Time | 2026-04-23 14:18 |
|---|---|
| Airport | Djibouti-Ambouli Airport (HDAM) |
Arrival
| Time | 2026-04-23 15:17 |
|---|---|
| Airport | Addis Ababa Bole International Airport (HAAB) |
| Time | Latitude | Longitude | Altitude | Speed | Heading |
|---|---|---|---|---|---|
| 2026-04-23 14:05 | 11.55078 | 43.15095 | 52 ft | 0 kts | 90° |
| 2026-04-23 14:13 | 11.55077 | 43.15096 | 56 ft | 1 kts | 101° |
| 2026-04-23 14:13 | 11.55070 | 43.15096 | 49 ft | 1 kts | 181° |
| 2026-04-23 14:14 | 11.55047 | 43.15091 | 59 ft | 6 kts | 182° |
| 2026-04-23 14:14 | 11.55001 | 43.15066 | 55 ft | 8 kts | 259° |
| 2026-04-23 14:14 | 11.55000 | 43.15007 | 59 ft | 8 kts | 270° |
| 2026-04-23 14:14 | 11.55000 | 43.14949 | 59 ft | 8 kts | 270° |
| 2026-04-23 14:15 | 11.55003 | 43.14893 | 54 ft | 8 kts | 273° |
| 2026-04-23 14:15 | 11.55004 | 43.14839 | 55 ft | 7 kts | 273° |
| 2026-04-23 14:15 | 11.55007 | 43.14785 | 58 ft | 8 kts | 273° |
| 2026-04-23 14:15 | 11.55009 | 43.14716 | 58 ft | 11 kts | 272° |
| 2026-04-23 14:16 | 11.55007 | 43.14635 | 58 ft | 11 kts | 256° |
| 2026-04-23 14:16 | 11.54942 | 43.14608 | 58 ft | 11 kts | 180° |
| 2026-04-23 14:16 | 11.54866 | 43.14608 | 59 ft | 11 kts | 180° |
| 2026-04-23 14:16 | 11.54792 | 43.14608 | 59 ft | 10 kts | 180° |
| 2026-04-23 14:17 | 11.54750 | 43.14654 | 59 ft | 10 kts | 84° |
| 2026-04-23 14:17 | 11.54751 | 43.14724 | 60 ft | 10 kts | 91° |
| 2026-04-23 14:17 | 11.54748 | 43.14981 | 61 ft | 67 kts | 91° |
| 2026-04-23 14:17 | 11.54736 | 43.15657 | 62 ft | 121 kts | 91° |
| 2026-04-23 14:18 | 11.54744 | 43.16672 | 150 ft | 154 kts | 86° |
| 2026-04-23 14:18 | 11.54749 | 43.17737 | 795 ft | 150 kts | 87° |
| 2026-04-23 14:18 | 11.54544 | 43.18824 | 1239 ft | 166 kts | 124° |
| 2026-04-23 14:18 | 11.53555 | 43.19452 | 1756 ft | 178 kts | 162° |
| 2026-04-23 14:19 | 11.52218 | 43.19605 | 1969 ft | 206 kts | 178° |
| 2026-04-23 14:19 | 11.50781 | 43.19226 | 2160 ft | 228 kts | 205° |
| 2026-04-23 14:19 | 11.49312 | 43.18409 | 2326 ft | 247 kts | 205° |
| 2026-04-23 14:19 | 11.47739 | 43.17529 | 2524 ft | 265 kts | 206° |
| 2026-04-23 14:20 | 11.46085 | 43.16614 | 2931 ft | 275 kts | 206° |
| 2026-04-23 14:20 | 11.44429 | 43.15707 | 3649 ft | 272 kts | 206° |
| 2026-04-23 14:20 | 11.42766 | 43.14805 | 4343 ft | 270 kts | 205° |
| 2026-04-23 14:20 | 11.41099 | 43.13908 | 4981 ft | 270 kts | 205° |
| 2026-04-23 14:21 | 11.39441 | 43.13024 | 5514 ft | 274 kts | 206° |
| 2026-04-23 14:21 | 11.37735 | 43.12117 | 6098 ft | 276 kts | 205° |
| 2026-04-23 14:21 | 11.36035 | 43.11218 | 6579 ft | 281 kts | 205° |
| 2026-04-23 14:21 | 11.34297 | 43.10300 | 7195 ft | 281 kts | 205° |
| 2026-04-23 14:22 | 11.32545 | 43.09376 | 7704 ft | 287 kts | 206° |
| 2026-04-23 14:22 | 11.30753 | 43.08431 | 8263 ft | 290 kts | 204° |
| 2026-04-23 14:22 | 11.28935 | 43.07473 | 8869 ft | 293 kts | 204° |
| 2026-04-23 14:22 | 11.27130 | 43.06521 | 9441 ft | 297 kts | 204° |
| 2026-04-23 14:23 | 11.25292 | 43.05553 | 10059 ft | 299 kts | 204° |
| 2026-04-23 14:23 | 11.23408 | 43.04563 | 10351 ft | 314 kts | 204° |
| 2026-04-23 14:23 | 11.21396 | 43.03508 | 10480 ft | 333 kts | 204° |
| 2026-04-23 14:23 | 11.19283 | 43.02397 | 10633 ft | 350 kts | 206° |
| 2026-04-23 14:24 | 11.17087 | 43.01240 | 10975 ft | 359 kts | 205° |
| 2026-04-23 14:24 | 11.14858 | 43.00064 | 11445 ft | 363 kts | 205° |
| 2026-04-23 14:24 | 11.12605 | 42.98877 | 11954 ft | 366 kts | 204° |
| 2026-04-23 14:24 | 11.10391 | 42.97557 | 12444 ft | 374 kts | 218° |
| 2026-04-23 14:25 | 11.08799 | 42.95467 | 13034 ft | 379 kts | 244° |
| 2026-04-23 14:25 | 11.08091 | 42.92896 | 13572 ft | 385 kts | 263° |
| 2026-04-23 14:25 | 11.07898 | 42.90158 | 14005 ft | 392 kts | 265° |
| 2026-04-23 14:25 | 11.07770 | 42.87381 | 14541 ft | 393 kts | 266° |
| 2026-04-23 14:26 | 11.07696 | 42.84592 | 15114 ft | 393 kts | 268° |
| 2026-04-23 14:26 | 11.07597 | 42.81805 | 15653 ft | 395 kts | 266° |
| 2026-04-23 14:26 | 11.07456 | 42.78981 | 16086 ft | 401 kts | 266° |
| 2026-04-23 14:26 | 11.07300 | 42.76124 | 16422 ft | 409 kts | 266° |
| 2026-04-23 14:27 | 11.07138 | 42.73228 | 17011 ft | 409 kts | 266° |
| 2026-04-23 14:27 | 11.06978 | 42.70338 | 17632 ft | 407 kts | 266° |
| 2026-04-23 14:27 | 11.06872 | 42.68428 | 17938 ft | 410 kts | 266° |
| 2026-04-23 14:27 | 11.06713 | 42.65518 | 18324 ft | 414 kts | 266° |
| 2026-04-23 14:28 | 11.06498 | 42.61567 | 18772 ft | 421 kts | 266° |
| 2026-04-23 14:28 | 11.06337 | 42.58607 | 19328 ft | 418 kts | 266° |
| 2026-04-23 14:28 | 11.06231 | 42.56654 | 19764 ft | 414 kts | 266° |
| 2026-04-23 14:28 | 11.06071 | 42.53713 | 20118 ft | 419 kts | 266° |
| 2026-04-23 14:29 | 11.05908 | 42.50728 | 20395 ft | 426 kts | 266° |
| 2026-04-23 14:29 | 11.05743 | 42.47706 | 20721 ft | 429 kts | 266° |
| 2026-04-23 14:29 | 11.05577 | 42.44674 | 21155 ft | 429 kts | 266° |
| 2026-04-23 14:29 | 11.05412 | 42.41650 | 21604 ft | 430 kts | 265° |
| 2026-04-23 14:30 | 11.05244 | 42.38590 | 21979 ft | 432 kts | 266° |
| 2026-04-23 14:30 | 11.05076 | 42.35537 | 22403 ft | 432 kts | 266° |
| 2026-04-23 14:30 | 11.04908 | 42.32481 | 22809 ft | 433 kts | 266° |
| 2026-04-23 14:30 | 11.04739 | 42.29424 | 23173 ft | 434 kts | 266° |
| 2026-04-23 14:31 | 11.04569 | 42.26350 | 23476 ft | 436 kts | 265° |
| 2026-04-23 14:31 | 11.04399 | 42.23263 | 23786 ft | 437 kts | 266° |
| 2026-04-23 14:31 | 11.04227 | 42.20176 | 24114 ft | 437 kts | 266° |
| 2026-04-23 14:31 | 11.03962 | 42.17090 | 24405 ft | 438 kts | 257° |
| 2026-04-23 14:32 | 11.02913 | 42.14203 | 24758 ft | 435 kts | 240° |
| 2026-04-23 14:32 | 11.01353 | 42.11613 | 25123 ft | 435 kts | 237° |
| 2026-04-23 14:32 | 10.99667 | 42.09005 | 25448 ft | 435 kts | 236° |
| 2026-04-23 14:32 | 10.98009 | 42.06485 | 25754 ft | 435 kts | 237° |
| 2026-04-23 14:33 | 10.96322 | 42.03918 | 26009 ft | 438 kts | 237° |
| 2026-04-23 14:33 | 10.94629 | 42.01323 | 26206 ft | 441 kts | 237° |
| 2026-04-23 14:33 | 10.92933 | 41.98701 | 26412 ft | 444 kts | 237° |
| 2026-04-23 14:33 | 10.91237 | 41.96062 | 26576 ft | 448 kts | 237° |
| 2026-04-23 14:34 | 10.89527 | 41.93390 | 26769 ft | 451 kts | 238° |
| 2026-04-23 14:34 | 10.87816 | 41.90711 | 27052 ft | 451 kts | 238° |
| 2026-04-23 14:34 | 10.86108 | 41.88034 | 27324 ft | 452 kts | 238° |
| 2026-04-23 14:34 | 10.84393 | 41.85345 | 27578 ft | 453 kts | 238° |
| 2026-04-23 14:35 | 10.82675 | 41.82654 | 27862 ft | 453 kts | 238° |
| 2026-04-23 14:35 | 10.80966 | 41.79977 | 28224 ft | 451 kts | 238° |
| 2026-04-23 14:35 | 10.79260 | 41.77307 | 28640 ft | 449 kts | 238° |
| 2026-04-23 14:35 | 10.77559 | 41.74645 | 29024 ft | 447 kts | 238° |
| 2026-04-23 14:36 | 10.75866 | 41.71996 | 29364 ft | 446 kts | 238° |
| 2026-04-23 14:36 | 10.74172 | 41.69347 | 29703 ft | 446 kts | 238° |
| 2026-04-23 14:36 | 10.72485 | 41.66709 | 30028 ft | 444 kts | 239° |
| 2026-04-23 14:36 | 10.70804 | 41.64081 | 30321 ft | 444 kts | 239° |
| 2026-04-23 14:37 | 10.69120 | 41.61449 | 30547 ft | 445 kts | 239° |
| 2026-04-23 14:37 | 10.67432 | 41.58812 | 30799 ft | 444 kts | 239° |
| 2026-04-23 14:37 | 10.65768 | 41.56211 | 31106 ft | 443 kts | 239° |
| 2026-04-23 14:37 | 10.64071 | 41.53562 | 31432 ft | 442 kts | 239° |
| 2026-04-23 14:38 | 10.62394 | 41.50944 | 31711 ft | 441 kts | 239° |
| 2026-04-23 14:38 | 10.60737 | 41.48357 | 31720 ft | 445 kts | 239° |
| 2026-04-23 14:38 | 10.57359 | 41.43085 | 31727 ft | 442 kts | 239° |
| 2026-04-23 14:39 | 10.54016 | 41.37872 | 31747 ft | 439 kts | 239° |
| 2026-04-23 14:39 | 10.50684 | 41.32678 | 31742 ft | 438 kts | 239° |
| 2026-04-23 14:40 | 10.47356 | 41.27491 | 31742 ft | 438 kts | 239° |
| 2026-04-23 14:40 | 10.44026 | 41.22304 | 31744 ft | 438 kts | 239° |
| 2026-04-23 14:41 | 10.40685 | 41.17102 | 31745 ft | 439 kts | 239° |
| 2026-04-23 14:41 | 10.37344 | 41.11903 | 31743 ft | 440 kts | 239° |
| 2026-04-23 14:42 | 10.34012 | 41.06720 | 31740 ft | 441 kts | 239° |
| 2026-04-23 14:42 | 10.30653 | 41.01499 | 31743 ft | 442 kts | 239° |
| 2026-04-23 14:43 | 10.27289 | 40.96271 | 31739 ft | 443 kts | 239° |
| 2026-04-23 14:43 | 10.23918 | 40.91036 | 31742 ft | 443 kts | 239° |
| 2026-04-23 14:44 | 10.20546 | 40.85800 | 31738 ft | 443 kts | 239° |
| 2026-04-23 14:44 | 10.17172 | 40.80565 | 31740 ft | 443 kts | 239° |
| 2026-04-23 14:45 | 10.13793 | 40.75323 | 31742 ft | 443 kts | 239° |
| 2026-04-23 14:45 | 10.10423 | 40.70099 | 31739 ft | 443 kts | 239° |
| 2026-04-23 14:46 | 10.07045 | 40.64865 | 31744 ft | 443 kts | 239° |
| 2026-04-23 14:46 | 10.03670 | 40.59637 | 31735 ft | 443 kts | 239° |
| 2026-04-23 14:47 | 10.00296 | 40.54413 | 31740 ft | 442 kts | 239° |
| 2026-04-23 14:47 | 9.96926 | 40.49198 | 31748 ft | 442 kts | 239° |
| 2026-04-23 14:48 | 9.93557 | 40.43985 | 31746 ft | 442 kts | 239° |
| 2026-04-23 14:48 | 9.90210 | 40.38811 | 31747 ft | 442 kts | 239° |
| 2026-04-23 14:49 | 9.86842 | 40.33606 | 31751 ft | 442 kts | 239° |
| 2026-04-23 14:49 | 9.83499 | 40.28444 | 31740 ft | 427 kts | 239° |
| 2026-04-23 14:50 | 9.81881 | 40.25949 | 31437 ft | 421 kts | 239° |
| 2026-04-23 14:50 | 9.80287 | 40.23488 | 31137 ft | 415 kts | 239° |
| 2026-04-23 14:50 | 9.78712 | 40.21056 | 30752 ft | 412 kts | 239° |
| 2026-04-23 14:50 | 9.77142 | 40.18632 | 30395 ft | 409 kts | 239° |
| 2026-04-23 14:51 | 9.75584 | 40.16226 | 29996 ft | 408 kts | 239° |
| 2026-04-23 14:51 | 9.74028 | 40.13824 | 29559 ft | 406 kts | 238° |
| 2026-04-23 14:51 | 9.72485 | 40.11444 | 29152 ft | 403 kts | 238° |
| 2026-04-23 14:51 | 9.70953 | 40.09081 | 28718 ft | 400 kts | 238° |
| 2026-04-23 14:52 | 9.69429 | 40.06731 | 28302 ft | 397 kts | 238° |
| 2026-04-23 14:52 | 9.67918 | 40.04402 | 27897 ft | 394 kts | 238° |
| 2026-04-23 14:52 | 9.66416 | 40.02087 | 27534 ft | 392 kts | 238° |
| 2026-04-23 14:52 | 9.64928 | 39.99794 | 27137 ft | 389 kts | 238° |
| 2026-04-23 14:53 | 9.63464 | 39.97537 | 26738 ft | 387 kts | 238° |
| 2026-04-23 14:53 | 9.61987 | 39.95262 | 26337 ft | 385 kts | 238° |
| 2026-04-23 14:53 | 9.60518 | 39.93000 | 25990 ft | 383 kts | 238° |
| 2026-04-23 14:53 | 9.59053 | 39.90744 | 25592 ft | 382 kts | 237° |
| 2026-04-23 14:54 | 9.57595 | 39.88499 | 25196 ft | 381 kts | 238° |
| 2026-04-23 14:54 | 9.56136 | 39.86253 | 24788 ft | 380 kts | 237° |
| 2026-04-23 14:54 | 9.54683 | 39.84016 | 24429 ft | 380 kts | 237° |
| 2026-04-23 14:54 | 9.53235 | 39.81788 | 24017 ft | 379 kts | 237° |
| 2026-04-23 14:55 | 9.51784 | 39.79555 | 23622 ft | 379 kts | 237° |
| 2026-04-23 14:55 | 9.50339 | 39.77331 | 23189 ft | 378 kts | 237° |
| 2026-04-23 14:55 | 9.48893 | 39.75106 | 22804 ft | 377 kts | 237° |
| 2026-04-23 14:55 | 9.47455 | 39.72895 | 22409 ft | 375 kts | 236° |
| 2026-04-23 14:56 | 9.46025 | 39.70697 | 22014 ft | 373 kts | 236° |
| 2026-04-23 14:56 | 9.44601 | 39.68510 | 21595 ft | 371 kts | 236° |
| 2026-04-23 14:56 | 9.43151 | 39.66316 | 21011 ft | 376 kts | 236° |
| 2026-04-23 14:56 | 9.41688 | 39.64121 | 20578 ft | 376 kts | 236° |
| 2026-04-23 14:57 | 9.40228 | 39.61933 | 20205 ft | 374 kts | 235° |
| 2026-04-23 14:57 | 9.38778 | 39.59761 | 19818 ft | 372 kts | 235° |
| 2026-04-23 14:57 | 9.37350 | 39.57618 | 19474 ft | 371 kts | 235° |
| 2026-04-23 14:57 | 9.35907 | 39.55452 | 19081 ft | 370 kts | 234° |
| 2026-04-23 14:58 | 9.34471 | 39.53296 | 18697 ft | 369 kts | 235° |
| 2026-04-23 14:58 | 9.33037 | 39.51143 | 18303 ft | 368 kts | 235° |
| 2026-04-23 14:58 | 9.31607 | 39.48996 | 17885 ft | 367 kts | 234° |
| 2026-04-23 14:58 | 9.30187 | 39.46865 | 17509 ft | 364 kts | 234° |
| 2026-04-23 14:59 | 9.28776 | 39.44746 | 17132 ft | 362 kts | 235° |
| 2026-04-23 14:59 | 9.27374 | 39.42642 | 16772 ft | 359 kts | 235° |
| 2026-04-23 14:59 | 9.25986 | 39.40556 | 16398 ft | 356 kts | 234° |
| 2026-04-23 14:59 | 9.24603 | 39.38482 | 16038 ft | 354 kts | 234° |
| 2026-04-23 15:00 | 9.23232 | 39.36425 | 15675 ft | 352 kts | 235° |
| 2026-04-23 15:00 | 9.21868 | 39.34377 | 15309 ft | 349 kts | 234° |
| 2026-04-23 15:00 | 9.20516 | 39.32347 | 14960 ft | 347 kts | 234° |
| 2026-04-23 15:00 | 9.19167 | 39.30325 | 14733 ft | 342 kts | 234° |
| 2026-04-23 15:01 | 9.17851 | 39.28350 | 14562 ft | 334 kts | 234° |
| 2026-04-23 15:01 | 9.16569 | 39.26428 | 14424 ft | 326 kts | 235° |
| 2026-04-23 15:01 | 9.15330 | 39.24514 | 14115 ft | 325 kts | 236° |
| 2026-04-23 15:01 | 9.14133 | 39.22593 | 13910 ft | 320 kts | 237° |
| 2026-04-23 15:02 | 9.13359 | 39.21342 | 13828 ft | 315 kts | 236° |
| 2026-04-23 15:02 | 9.11841 | 39.18892 | 13621 ft | 306 kts | 236° |
| 2026-04-23 15:02 | 9.10715 | 39.17081 | 13443 ft | 301 kts | 237° |
| 2026-04-23 15:02 | 9.09602 | 39.15295 | 13117 ft | 300 kts | 236° |
| 2026-04-23 15:03 | 9.08486 | 39.13507 | 12827 ft | 300 kts | 236° |
| 2026-04-23 15:03 | 9.07373 | 39.11726 | 12528 ft | 300 kts | 236° |
| 2026-04-23 15:03 | 9.06342 | 39.09891 | 12232 ft | 301 kts | 248° |
| 2026-04-23 15:03 | 9.05742 | 39.07865 | 11950 ft | 301 kts | 254° |
| 2026-04-23 15:04 | 9.05195 | 39.05818 | 11636 ft | 301 kts | 253° |
| 2026-04-23 15:04 | 9.04628 | 39.03784 | 11345 ft | 301 kts | 253° |
| 2026-04-23 15:04 | 9.04056 | 39.01750 | 11069 ft | 300 kts | 252° |
| 2026-04-23 15:04 | 9.03475 | 38.99724 | 10799 ft | 300 kts | 251° |
| 2026-04-23 15:05 | 9.02888 | 38.97704 | 10519 ft | 296 kts | 251° |
| 2026-04-23 15:05 | 9.02269 | 38.95739 | 10248 ft | 288 kts | 243° |
| 2026-04-23 15:05 | 9.01242 | 38.94115 | 10323 ft | 264 kts | 230° |
| 2026-04-23 15:05 | 9.00118 | 38.92711 | 10292 ft | 248 kts | 226° |
| 2026-04-23 15:06 | 8.98985 | 38.91485 | 10336 ft | 232 kts | 222° |
| 2026-04-23 15:06 | 8.97876 | 38.90317 | 10335 ft | 230 kts | 222° |
| 2026-04-23 15:06 | 8.96715 | 38.89098 | 10359 ft | 254 kts | 220° |
| 2026-04-23 15:06 | 8.95432 | 38.87761 | 10391 ft | 269 kts | 222° |
| 2026-04-23 15:07 | 8.94149 | 38.86395 | 10374 ft | 265 kts | 223° |
| 2026-04-23 15:07 | 8.92886 | 38.85066 | 10361 ft | 259 kts | 220° |
| 2026-04-23 15:07 | 8.91663 | 38.83754 | 10383 ft | 255 kts | 224° |
| 2026-04-23 15:07 | 8.90425 | 38.82455 | 10374 ft | 256 kts | 213° |
| 2026-04-23 15:08 | 8.88918 | 38.81560 | 10408 ft | 251 kts | 201° |
| 2026-04-23 15:08 | 8.87363 | 38.80732 | 10369 ft | 253 kts | 203° |
| 2026-04-23 15:08 | 8.85827 | 38.79865 | 10355 ft | 252 kts | 205° |
| 2026-04-23 15:09 | 8.82856 | 38.78120 | 10288 ft | 239 kts | 204° |
| 2026-04-23 15:09 | 8.81439 | 38.77277 | 10278 ft | 233 kts | 205° |
| 2026-04-23 15:09 | 8.80072 | 38.76452 | 10261 ft | 233 kts | 209° |
| 2026-04-23 15:09 | 8.78964 | 38.75221 | 10255 ft | 244 kts | 240° |
| 2026-04-23 15:10 | 8.78579 | 38.74142 | 10274 ft | 243 kts | 255° |
| 2026-04-23 15:10 | 8.78364 | 38.71899 | 10231 ft | 240 kts | 269° |
| 2026-04-23 15:10 | 8.78489 | 38.70222 | 10246 ft | 238 kts | 278° |
| 2026-04-23 15:10 | 8.78854 | 38.68611 | 10209 ft | 230 kts | 289° |
| 2026-04-23 15:11 | 8.79490 | 38.67151 | 10216 ft | 226 kts | 300° |
| 2026-04-23 15:11 | 8.80395 | 38.65848 | 10220 ft | 228 kts | 312° |
| 2026-04-23 15:11 | 8.81534 | 38.64749 | 10244 ft | 228 kts | 324° |
| 2026-04-23 15:11 | 8.82879 | 38.63880 | 10249 ft | 230 kts | 335° |
| 2026-04-23 15:12 | 8.84355 | 38.63288 | 10224 ft | 228 kts | 347° |
| 2026-04-23 15:12 | 8.85892 | 38.63001 | 10258 ft | 222 kts | 358° |
| 2026-04-23 15:12 | 8.87425 | 38.63016 | 10274 ft | 220 kts | 11° |
| 2026-04-23 15:12 | 8.88917 | 38.63319 | 10269 ft | 217 kts | 21° |
| 2026-04-23 15:13 | 8.90308 | 38.63883 | 10278 ft | 216 kts | 32° |
| 2026-04-23 15:13 | 8.91592 | 38.64659 | 10291 ft | 212 kts | 39° |
| 2026-04-23 15:13 | 8.92685 | 38.65605 | 10207 ft | 201 kts | 52° |
| 2026-04-23 15:13 | 8.93515 | 38.66703 | 9975 ft | 192 kts | 64° |
| 2026-04-23 15:14 | 8.94104 | 38.67867 | 9669 ft | 181 kts | 73° |
| 2026-04-23 15:14 | 8.94536 | 38.69059 | 9629 ft | 185 kts | 75° |
| 2026-04-23 15:14 | 8.94920 | 38.70355 | 9293 ft | 192 kts | 77° |
| 2026-04-23 15:14 | 8.95165 | 38.71200 | 9179 ft | 184 kts | 77° |
| 2026-04-23 15:15 | 8.95617 | 38.72763 | 8942 ft | 168 kts | 79° |
| 2026-04-23 15:15 | 8.95945 | 38.73904 | 8639 ft | 170 kts | 78° |
| 2026-04-23 15:15 | 8.96270 | 38.75030 | 8359 ft | 165 kts | 76° |
| 2026-04-23 15:15 | 8.96605 | 38.76178 | 8183 ft | 176 kts | 75° |
| 2026-04-23 15:16 | 8.96835 | 38.76974 | 8021 ft | 179 kts | 73° |
| 2026-04-23 15:16 | 8.97179 | 38.78199 | 7735 ft | 183 kts | 70° |
| 2026-04-23 15:16 | 8.97536 | 38.79427 | 7618 ft | 172 kts | 72° |
| 2026-04-23 15:16 | 8.97840 | 38.80430 | 7622 ft | 130 kts | 74° |
| 2026-04-23 15:17 | 8.98043 | 38.81128 | 7618 ft | 45 kts | 74° |
| 2026-04-23 15:17 | 8.98176 | 38.81291 | 7618 ft | 13 kts | 40° |
| 2026-04-23 15:17 | 8.98255 | 38.81317 | 7619 ft | 12 kts | 340° |
| 2026-04-23 15:17 | 8.98279 | 38.81244 | 7619 ft | 12 kts | 252° |
| 2026-04-23 15:18 | 8.98254 | 38.81163 | 7620 ft | 12 kts | 253° |
| 2026-04-23 15:18 | 8.98231 | 38.81084 | 7620 ft | 12 kts | 253° |
| 2026-04-23 15:18 | 8.98209 | 38.81008 | 7620 ft | 11 kts | 253° |
| 2026-04-23 15:18 | 8.98187 | 38.80933 | 7620 ft | 11 kts | 253° |
| 2026-04-23 15:19 | 8.98166 | 38.80860 | 7619 ft | 11 kts | 254° |
| 2026-04-23 15:19 | 8.98147 | 38.80790 | 7619 ft | 10 kts | 254° |
| 2026-04-23 15:19 | 8.98126 | 38.80722 | 7620 ft | 10 kts | 253° |
| 2026-04-23 15:19 | 8.98106 | 38.80655 | 7620 ft | 10 kts | 253° |
| 2026-04-23 15:20 | 8.98084 | 38.80582 | 7621 ft | 12 kts | 253° |
| 2026-04-23 15:20 | 8.98058 | 38.80493 | 7621 ft | 14 kts | 253° |
| 2026-04-23 15:20 | 8.98030 | 38.80398 | 7622 ft | 14 kts | 253° |
| 2026-04-23 15:20 | 8.98004 | 38.80307 | 7623 ft | 13 kts | 254° |
| 2026-04-23 15:21 | 8.97977 | 38.80212 | 7625 ft | 15 kts | 254° |
| 2026-04-23 15:21 | 8.97979 | 38.80184 | 7622 ft | 2 kts | 298° |
| 2026-04-23 15:21 | 8.98000 | 38.80168 | 7622 ft | 6 kts | 336° |
| 2026-04-23 15:21 | 8.98052 | 38.80155 | 7621 ft | 10 kts | 346° |
| 2026-04-23 15:22 | 8.98130 | 38.80134 | 7623 ft | 13 kts | 345° |
| 2026-04-23 15:22 | 8.98221 | 38.80109 | 7620 ft | 13 kts | 345° |
| 2026-04-23 15:22 | 8.98282 | 38.80057 | 7620 ft | 12 kts | 277° |
| 2026-04-23 15:22 | 8.98263 | 38.79974 | 7620 ft | 12 kts | 253° |
| 2026-04-23 15:23 | 8.98240 | 38.79894 | 7620 ft | 12 kts | 253° |
| 2026-04-23 15:23 | 8.98217 | 38.79817 | 7620 ft | 11 kts | 253° |
| 2026-04-23 15:23 | 8.98194 | 38.79741 | 7620 ft | 9 kts | 253° |
| 2026-04-23 15:23 | 8.98181 | 38.79693 | 7620 ft | 6 kts | 258° |
| 2026-04-23 15:24 | 8.98205 | 38.79664 | 7620 ft | 6 kts | 349° |
| 2026-04-23 15:24 | 8.98234 | 38.79657 | 7620 ft | 3 kts | 345° |
| 2026-04-23 15:24 | 8.98240 | 38.79656 | 7620 ft | 0 kts | 346° |
| 2026-04-23 15:24 | 8.98241 | 38.79656 | 7620 ft | 0 kts | 346° |
| 2026-04-23 15:25 | 8.98242 | 38.79655 | 7620 ft | 0 kts | 345° |